Terminal Aerodrome Forecast
Issued by NWS North Platte, NE

Home | Current Version | Previous Version | Graphics & Text | Print | Product List | Glossary On
Versions: 1 2 3 4 5 6 7 8 9 10 11 12 13 14
000
FTUS43 KLBF 212009 AAA
TAFVTN
TAF AMD
KVTN 212009Z 2120/2218 34012G20KT P6SM SKC
     FM212300 27009KT P6SM VCSH BKN070 BKN120
     FM220500 26008KT P6SM SCT100 SCT250
     FM220900 27009KT P6SM FEW250
     FM221500 30013G20KT P6SM BKN100=

USA.gov is the U.S. government's official web portal to all federal, state and local government web resources and services.